Time,TemperatureF,DewpointF,PressureIn,WindDirection,WindDirectionDegrees,WindSpeedMPH,WindSpeedGustMPH,Humidity,HourlyPrecipIn,Conditions,Clouds,dailyrainin,SoftwareType,DateUTC
2013-04-25 00:02:00,47.3,-99.9,25.13,SE,137,1.0,3.1,-999,0.00,,,-99.99,FreeWX 2.04,2013-04-25 06:02:00,
2013-04-25 00:07:00,47.5,-99.9,25.13,SE,137,1.0,3.6,-999,0.00,,,-99.99,FreeWX 2.04,2013-04-25 06:07:00,
2013-04-25 00:12:00,46.6,-99.9,25.13,SE,137,1.0,3.1,-999,0.00,,,-99.99,FreeWX 2.04,2013-04-25 06:12:00,
2013-04-25 00:17:00,46.0,-99.9,25.13,SE,137,1.0,3.6,-999,0.00,,,-99.99,FreeWX 2.04,2013-04-25 06:17:00,
2013-04-25 00:22:00,45.7,-99.9,25.13,SE,137,2.0,4.0,-999,0.00,,,-99.99,FreeWX 2.04,2013-04-25 06:22:00,
2013-04-25 00:27:00,45.1,-99.9,25.13,SE,136,2.0,3.1,-999,0.00,,,-99.99,FreeWX 2.04,2013-04-25 06:27:00,
2013-04-25 00:32:00,44.2,-99.9,25.13,SE,133,1.0,5.4,-999,0.00,,,-99.99,FreeWX 2.04,2013-04-25 06:32:00,
2013-04-25 00:37:00,43.5,-99.9,25.13,ESE,119,2.0,4.5,-999,0.00,,,-99.99,FreeWX 2.04,2013-04-25 06:37:00,
2013-04-25 00:42:00,44.2,-99.9,25.13,ESE,110,3.0,4.9,-999,0.00,,,-99.99,FreeWX 2.04,2013-04-25 06:42:00,
2013-04-25 00:47:00,43.7,-99.9,25.13,ESE,109,2.0,4.0,-999,0.00,,,-99.99,FreeWX 2.04,2013-04-25 06:47:00,
2013-04-25 00:52:00,44.2,-99.9,25.13,ESE,109,2.0,5.4,-999,0.00,,,-99.99,FreeWX 2.04,2013-04-25 06:52:00,
2013-04-25 00:57:00,43.0,-4.4,25.13,ESE,103,4.0,5.8,13,0.00,,,-99.99,FreeWX 2.04,2013-04-25 06:57:00,
2013-04-25 01:02:00,42.4,-4.9,25.13,East,95,4.0,5.8,13,0.00,,,-99.99,FreeWX 2.04,2013-04-25 07:02:00,
2013-04-25 01:07:00,43.5,-4.0,25.13,East,90,4.0,4.9,13,0.00,,,-99.99,FreeWX 2.04,2013-04-25 07:07:00,
2013-04-25 01:12:00,44.1,-5.3,25.13,East,85,3.0,4.9,12,0.00,,,-99.99,FreeWX 2.04,2013-04-25 07:12:00,
2013-04-25 01:17:00,44.8,-99.9,25.13,East,84,2.0,4.0,-999,0.00,,,-99.99,FreeWX 2.04,2013-04-25 07:17:00,
2013-04-25 01:22:00,44.8,-99.9,25.13,East,84,2.0,4.5,-999,0.00,,,-99.99,FreeWX 2.04,2013-04-25 07:22:00,
2013-04-25 01:27:00,45.0,-99.9,25.13,East,84,2.0,4.5,-999,0.00,,,-99.99,FreeWX 2.04,2013-04-25 07:27:00,
2013-04-25 01:32:00,45.3,-99.9,25.13,East,84,2.0,3.6,-999,0.00,,,-99.99,FreeWX 2.04,2013-04-25 07:32:00,
2013-04-25 01:37:00,45.1,-99.9,25.13,ESE,121,3.0,5.8,-999,0.00,,,-99.99,FreeWX 2.04,2013-04-25 07:37:00,
2013-04-25 01:42:00,45.1,-99.9,25.13,SSE,161,3.0,4.9,-999,0.00,,,-99.99,FreeWX 2.04,2013-04-25 07:42:00,
2013-04-25 01:47:00,45.3,-4.2,25.13,South,191,3.0,7.8,12,0.00,,,-99.99,FreeWX 2.04,2013-04-25 07:47:00,
2013-04-25 01:52:00,45.9,-99.9,25.13,WNW,294,4.0,6.7,-999,0.00,,,-99.99,FreeWX 2.04,2013-04-25 07:52:00,
2013-04-25 01:57:00,45.9,-99.9,25.13,NW,311,5.0,7.8,-999,0.00,,,-99.99,FreeWX 2.04,2013-04-25 07:57:00,
2013-04-25 02:02:00,45.7,-99.9,25.13,NW,320,5.0,6.3,-999,0.00,,,-99.99,FreeWX 2.04,2013-04-25 08:02:00,
2013-04-25 02:07:00,45.3,-99.9,25.13,NNW,328,4.0,5.4,-999,0.00,,,-99.99,FreeWX 2.04,2013-04-25 08:07:00,
2013-04-25 02:12:00,45.3,-99.9,25.13,NNW,331,4.0,4.9,-999,0.00,,,-99.99,FreeWX 2.04,2013-04-25 08:12:00,
2013-04-25 02:17:00,43.3,-4.2,25.13,NNW,347,3.0,5.4,13,0.00,,,-99.99,FreeWX 2.04,2013-04-25 08:17:00,
2013-04-25 02:22:00,42.6,-4.7,25.13,North,7,2.0,4.0,13,0.00,,,-99.99,FreeWX 2.04,2013-04-25 08:22:00,
2013-04-25 02:27:00,42.3,-5.1,25.13,North,-999,0.0,3.6,13,0.00,,,-99.99,FreeWX 2.04,2013-04-25 08:27:00,
2013-04-25 02:32:00,42.3,-5.1,25.13,North,-999,0.0,0.0,13,0.00,,,-99.99,FreeWX 2.04,2013-04-25 08:32:00,
2013-04-25 02:37:00,42.3,-5.1,25.13,North,-999,0.0,3.6,13,0.00,,,-99.99,FreeWX 2.04,2013-04-25 08:37:00,
2013-04-25 02:42:00,43.0,-4.4,25.10,NNE,15,2.0,4.0,13,0.00,,,-99.99,FreeWX 2.04,2013-04-25 08:42:00,
2013-04-25 02:47:00,42.8,-4.5,25.10,NNE,15,2.0,4.0,13,0.00,,,-99.99,FreeWX 2.04,2013-04-25 08:47:00,
2013-04-25 02:52:00,42.4,-4.9,25.10,NNE,14,2.0,4.5,13,0.00,,,-99.99,FreeWX 2.04,2013-04-25 08:52:00,
2013-04-25 02:57:00,42.3,-5.1,25.10,NNE,14,3.0,4.9,13,0.00,,,-99.99,FreeWX 2.04,2013-04-25 08:57:00,
2013-04-25 03:02:00,42.4,-4.9,25.10,NNE,14,2.0,4.5,13,0.00,,,-99.99,FreeWX 2.04,2013-04-25 09:02:00,
2013-04-25 03:07:00,41.9,-5.3,25.10,NNE,14,3.0,5.4,13,0.00,,,-99.99,FreeWX 2.04,2013-04-25 09:07:00,
2013-04-25 03:12:00,41.4,-5.8,25.10,NNE,16,3.0,4.0,13,0.00,,,-99.99,FreeWX 2.04,2013-04-25 09:12:00,
2013-04-25 03:17:00,42.3,-5.1,25.10,NNE,18,3.0,5.8,13,0.00,,,-99.99,FreeWX 2.04,2013-04-25 09:17:00,
2013-04-25 03:22:00,43.3,-4.2,25.10,NNE,15,4.0,6.3,13,0.00,,,-99.99,FreeWX 2.04,2013-04-25 09:22:00,
2013-04-25 03:28:00,42.8,-4.5,25.10,NNE,13,4.0,6.3,13,0.00,,,-99.99,FreeWX 2.04,2013-04-25 09:28:00,
2013-04-25 03:33:00,41.9,-5.3,25.10,NNE,18,4.0,5.4,13,0.00,,,-99.99,FreeWX 2.04,2013-04-25 09:33:00,
2013-04-25 03:38:00,41.9,-5.3,25.10,NNE,20,4.0,4.9,13,0.00,,,-99.99,FreeWX 2.04,2013-04-25 09:38:00,
2013-04-25 03:43:00,42.3,-5.1,25.10,NNE,20,4.0,6.3,13,0.00,,,-99.99,FreeWX 2.04,2013-04-25 09:43:00,
2013-04-25 03:48:00,43.0,-4.4,25.10,NNE,23,4.0,6.3,13,0.00,,,-99.99,FreeWX 2.04,2013-04-25 09:48:00,
2013-04-25 03:53:00,42.4,-4.9,25.10,NNE,26,4.0,5.8,13,0.00,,,-99.99,FreeWX 2.04,2013-04-25 09:53:00,
2013-04-25 03:58:00,43.3,-4.2,25.10,NNE,25,4.0,6.3,13,0.00,,,-99.99,FreeWX 2.04,2013-04-25 09:58:00,
2013-04-25 04:03:00,43.3,-4.2,25.10,NNE,25,4.0,5.8,13,0.00,,,-99.99,FreeWX 2.04,2013-04-25 10:03:00,
2013-04-25 04:08:00,43.3,-4.2,25.10,NNE,30,4.0,5.8,13,0.00,,,-99.99,FreeWX 2.04,2013-04-25 10:08:00,
2013-04-25 04:13:00,44.2,-5.1,25.10,NNE,23,5.0,6.9,12,0.00,,,-99.99,FreeWX 2.04,2013-04-25 10:13:00,
2013-04-25 04:18:00,43.7,-5.6,25.10,NNE,15,5.0,6.9,12,0.00,,,-99.99,FreeWX 2.04,2013-04-25 10:18:00,
2013-04-25 04:23:00,43.7,-5.6,25.10,NNE,19,5.0,7.4,12,0.00,,,-99.99,FreeWX 2.04,2013-04-25 10:23:00,
2013-04-25 04:28:00,43.9,-5.4,25.10,NNE,21,5.0,7.8,12,0.00,,,-99.99,FreeWX 2.04,2013-04-25 10:28:00,
2013-04-25 04:33:00,44.1,-5.3,25.10,NNE,18,6.0,9.6,12,0.00,,,-99.99,FreeWX 2.04,2013-04-25 10:33:00,
2013-04-25 04:38:00,44.1,-5.3,25.10,NNE,21,6.0,8.3,12,0.00,,,-99.99,FreeWX 2.04,2013-04-25 10:38:00,
2013-04-25 04:43:00,44.1,-5.3,25.10,NNE,19,5.0,8.3,12,0.00,,,-99.99,FreeWX 2.04,2013-04-25 10:43:00,
2013-04-25 04:48:00,43.5,-4.0,25.10,NNE,14,5.0,6.9,13,0.00,,,-99.99,FreeWX 2.04,2013-04-25 10:48:00,
2013-04-25 04:53:00,44.1,-5.3,25.10,NNE,18,5.0,8.3,12,0.00,,,-99.99,FreeWX 2.04,2013-04-25 10:53:00,
2013-04-25 04:58:00,43.9,-5.4,25.10,NNE,19,5.0,6.9,12,0.00,,,-99.99,FreeWX 2.04,2013-04-25 10:58:00,
2013-04-25 05:03:00,43.7,-3.8,25.10,NNE,20,5.0,8.3,13,0.00,,,-99.99,FreeWX 2.04,2013-04-25 11:03:00,
2013-04-25 05:08:00,43.3,-4.2,25.10,NNE,19,5.0,7.4,13,0.00,,,-99.99,FreeWX 2.04,2013-04-25 11:08:00,
2013-04-25 05:13:00,43.0,-4.4,25.10,NNE,18,5.0,6.9,13,0.00,,,-99.99,FreeWX 2.04,2013-04-25 11:13:00,
2013-04-25 05:18:00,43.2,-4.4,25.10,NNE,21,5.0,6.7,13,0.00,,,-99.99,FreeWX 2.04,2013-04-25 11:18:00,
2013-04-25 05:23:00,43.2,-4.4,25.10,NNE,19,5.0,6.7,13,0.00,,,-99.99,FreeWX 2.04,2013-04-25 11:23:00,
2013-04-25 05:28:00,43.3,-4.2,25.10,NNE,19,4.0,5.4,13,0.00,,,-99.99,FreeWX 2.04,2013-04-25 11:28:00,
2013-04-25 05:33:00,43.3,-4.2,25.10,NNE,22,4.0,5.4,13,0.00,,,-99.99,FreeWX 2.04,2013-04-25 11:33:00,
2013-04-25 05:38:00,43.7,-3.8,25.10,NNE,17,4.0,5.4,13,0.00,,,-99.99,FreeWX 2.04,2013-04-25 11:38:00,
2013-04-25 05:43:00,43.9,-5.4,25.10,NNE,15,4.0,6.3,12,0.00,,,-99.99,FreeWX 2.04,2013-04-25 11:43:00,
2013-04-25 05:48:00,43.5,-4.0,25.10,NNE,12,5.0,6.9,13,0.00,,,-99.99,FreeWX 2.04,2013-04-25 11:48:00,
2013-04-25 05:53:00,43.7,-5.6,25.10,North,6,5.0,6.7,12,0.00,,,-99.99,FreeWX 2.04,2013-04-25 11:53:00,
2013-04-25 05:58:00,43.9,-5.4,25.10,North,358,5.0,7.8,12,0.00,,,-99.99,FreeWX 2.04,2013-04-25 11:58:00,
2013-04-25 06:03:00,43.7,-5.6,25.10,North,356,6.0,9.2,12,0.00,,,-99.99,FreeWX 2.04,2013-04-25 12:03:00,
2013-04-25 06:08:00,43.5,-4.0,25.10,North,356,6.0,6.9,13,0.00,,,-99.99,FreeWX 2.04,2013-04-25 12:08:00,
2013-04-25 06:13:00,43.3,-4.2,25.10,North,351,6.0,8.3,13,0.00,,,-99.99,FreeWX 2.04,2013-04-25 12:13:00,
2013-04-25 06:18:00,42.4,-4.9,25.10,NNW,344,6.0,7.4,13,0.00,,,-99.99,FreeWX 2.04,2013-04-25 12:18:00,
2013-04-25 06:23:00,41.7,-5.4,25.10,NNW,333,6.0,6.9,13,0.00,,,-99.99,FreeWX 2.04,2013-04-25 12:23:00,
2013-04-25 06:28:00,40.5,-2.2,25.10,NNW,327,6.0,7.8,16,0.00,,,-99.99,FreeWX 2.04,2013-04-25 12:28:00,
2013-04-25 06:33:00,39.9,-2.6,25.10,NNW,329,6.0,8.7,16,0.00,,,-99.99,FreeWX 2.04,2013-04-25 12:33:00,
2013-04-25 06:38:00,40.3,-2.4,25.10,NNW,340,6.0,9.2,16,0.00,,,-99.99,FreeWX 2.04,2013-04-25 12:38:00,
2013-04-25 06:43:00,41.0,-1.7,25.10,NNW,344,7.0,10.5,16,0.00,,,-99.99,FreeWX 2.04,2013-04-25 12:43:00,
2013-04-25 06:48:00,40.6,-2.0,25.10,NNW,342,7.0,10.5,16,0.00,,,-99.99,FreeWX 2.04,2013-04-25 12:48:00,
2013-04-25 06:53:00,41.9,-2.4,25.10,NNW,348,8.0,13.9,15,0.00,,,-99.99,FreeWX 2.04,2013-04-25 12:53:00,
2013-04-25 06:58:00,41.9,-2.4,25.10,North,2,8.0,10.5,15,0.00,,,-99.99,FreeWX 2.04,2013-04-25 12:58:00,
2013-04-25 07:03:00,42.3,-5.1,25.10,NNE,13,7.0,11.0,13,0.00,,,-99.99,FreeWX 2.04,2013-04-25 13:03:00,
2013-04-25 07:08:00,42.8,-4.5,25.10,NNE,23,6.0,9.2,13,0.00,,,-99.99,FreeWX 2.04,2013-04-25 13:08:00,
2013-04-25 07:13:00,43.0,-4.4,25.10,NNE,27,5.0,7.8,13,0.00,,,-99.99,FreeWX 2.04,2013-04-25 13:13:00,
2013-04-25 07:18:00,43.5,-4.0,25.10,NNE,21,5.0,7.8,13,0.00,,,-99.99,FreeWX 2.04,2013-04-25 13:18:00,
2013-04-25 07:23:00,43.5,-4.0,25.10,North,11,6.0,9.6,13,0.00,,,-99.99,FreeWX 2.04,2013-04-25 13:23:00,
2013-04-25 07:28:00,43.5,-4.0,25.10,NNE,12,5.0,6.9,13,0.00,,,-99.99,FreeWX 2.04,2013-04-25 13:28:00,
2013-04-25 07:33:00,43.7,-5.6,25.10,NNE,12,5.0,9.2,12,0.00,,,-99.99,FreeWX 2.04,2013-04-25 13:33:00,
2013-04-25 07:38:00,43.9,-5.4,25.10,North,6,5.0,6.7,12,0.00,,,-99.99,FreeWX 2.04,2013-04-25 13:38:00,
2013-04-25 07:43:00,44.2,-5.1,25.10,North,4,5.0,6.9,12,0.00,,,-99.99,FreeWX 2.04,2013-04-25 13:43:00,
2013-04-25 07:48:00,44.4,-4.9,25.10,North,4,6.0,10.5,12,0.00,,,-99.99,FreeWX 2.04,2013-04-25 13:48:00,
2013-04-25 07:53:00,44.8,-4.7,25.10,NNE,12,6.0,10.5,12,0.00,,,-99.99,FreeWX 2.04,2013-04-25 13:53:00,
2013-04-25 07:58:00,44.4,-4.9,25.10,North,7,6.0,10.5,12,0.00,,,-99.99,FreeWX 2.04,2013-04-25 13:58:00,
2013-04-25 08:03:00,44.2,-5.1,25.10,North,353,7.0,9.6,12,0.00,,,-99.99,FreeWX 2.04,2013-04-25 14:03:00,
2013-04-25 08:08:00,44.1,-5.3,25.10,North,351,7.0,10.5,12,0.00,,,-99.99,FreeWX 2.04,2013-04-25 14:08:00,
2013-04-25 08:13:00,44.6,-4.9,25.10,North,353,7.0,9.6,12,0.00,,,-99.99,FreeWX 2.04,2013-04-25 14:13:00,
2013-04-25 08:18:00,44.6,-4.9,25.10,North,349,7.0,9.6,12,0.00,,,-99.99,FreeWX 2.04,2013-04-25 14:18:00,
2013-04-25 08:23:00,44.8,-4.7,25.10,North,350,7.0,8.7,12,0.00,,,-99.99,FreeWX 2.04,2013-04-25 14:23:00,
2013-04-25 08:28:00,44.8,-4.7,25.10,North,353,7.0,9.2,12,0.00,,,-99.99,FreeWX 2.04,2013-04-25 14:28:00,
2013-04-25 08:33:00,45.7,-4.0,25.10,North,8,7.0,11.2,12,0.00,,,-99.99,FreeWX 2.04,2013-04-25 14:33:00,
2013-04-25 08:38:00,46.2,-3.5,25.10,NNE,26,7.0,11.0,12,0.00,,,-99.99,FreeWX 2.04,2013-04-25 14:38:00,
2013-04-25 08:43:00,46.4,-3.5,25.10,NNE,30,8.0,13.9,12,0.00,,,-99.99,FreeWX 2.04,2013-04-25 14:43:00,
2013-04-25 08:48:00,46.9,-2.9,25.10,NNE,26,8.0,13.0,12,0.00,,,-99.99,FreeWX 2.04,2013-04-25 14:48:00,
2013-04-25 08:53:00,47.3,-4.5,25.10,NNE,21,8.0,12.1,11,0.00,,,-99.99,FreeWX 2.04,2013-04-25 14:53:00,
2013-04-25 08:58:00,47.5,-4.4,25.10,NNE,20,8.0,11.0,11,0.00,,,-99.99,FreeWX 2.04,2013-04-25 14:58:00,
2013-04-25 09:03:00,47.7,-4.2,25.10,NNE,12,7.0,11.0,11,0.00,,,-99.99,FreeWX 2.04,2013-04-25 15:03:00,
2013-04-25 09:08:00,47.5,-4.4,25.10,North,3,8.0,12.5,11,0.00,,,-99.99,FreeWX 2.04,2013-04-25 15:08:00,
2013-04-25 09:13:00,48.0,-4.0,25.10,North,11,9.0,13.0,11,0.00,,,-99.99,FreeWX 2.04,2013-04-25 15:13:00,
2013-04-25 09:18:00,48.7,-3.5,25.10,NNE,20,8.0,12.1,11,0.00,,,-99.99,FreeWX 2.04,2013-04-25 15:18:00,
2013-04-25 09:23:00,49.1,-3.1,25.10,NNE,17,7.0,11.2,11,0.00,,,-99.99,FreeWX 2.04,2013-04-25 15:23:00,
2013-04-25 09:28:00,48.9,-3.3,25.10,North,6,8.0,12.1,11,0.00,,,-99.99,FreeWX 2.04,2013-04-25 15:28:00,
2013-04-25 09:33:00,48.7,-3.5,25.10,North,1,9.0,13.9,11,0.00,,,-99.99,FreeWX 2.04,2013-04-25 15:33:00,
2013-04-25 09:38:00,49.8,-2.6,25.10,North,9,10.0,13.4,11,0.00,,,-99.99,FreeWX 2.04,2013-04-25 15:38:00,
2013-04-25 09:43:00,50.2,-2.2,25.10,NNE,18,9.0,12.5,11,0.00,,,-99.99,FreeWX 2.04,2013-04-25 15:43:00,
2013-04-25 09:48:00,51.4,-1.3,25.10,NNE,20,9.0,14.3,11,0.00,,,-99.99,FreeWX 2.04,2013-04-25 15:48:00,
2013-04-25 09:53:00,50.4,-2.2,25.07,NNE,18,8.0,13.0,11,0.00,,,-99.99,FreeWX 2.04,2013-04-25 15:53:00,
2013-04-25 09:58:00,50.4,-2.2,25.07,NNE,12,8.0,12.1,11,0.00,,,-99.99,FreeWX 2.04,2013-04-25 15:58:00,
2013-04-25 10:03:00,52.0,-0.9,25.07,NNE,14,8.0,13.0,11,0.00,,,-99.99,FreeWX 2.04,2013-04-25 16:03:00,
2013-04-25 10:08:00,51.8,-0.9,25.07,NNE,16,7.0,13.0,11,0.00,,,-99.99,FreeWX 2.04,2013-04-25 16:08:00,
2013-04-25 10:13:00,52.7,-0.2,25.07,North,10,8.0,11.2,11,0.00,,,-99.99,FreeWX 2.04,2013-04-25 16:13:00,
2013-04-25 10:18:00,52.3,-0.6,25.07,NNE,13,8.0,11.2,11,0.00,,,-99.99,FreeWX 2.04,2013-04-25 16:18:00,
2013-04-25 10:23:00,53.8,-99.9,25.07,NNE,25,6.0,11.2,-999,0.00,,,-99.99,FreeWX 2.04,2013-04-25 16:23:00,
2013-04-25 10:28:00,54.1,-99.9,25.07,NNE,26,6.0,11.2,-999,0.00,,,-99.99,FreeWX 2.04,2013-04-25 16:28:00,
2013-04-25 10:33:00,54.3,-99.9,25.07,NNE,19,6.0,11.6,-999,0.00,,,-99.99,FreeWX 2.04,2013-04-25 16:33:00,
2013-04-25 10:38:00,54.1,-99.9,25.07,NNE,13,6.0,11.2,-999,0.00,,,-99.99,FreeWX 2.04,2013-04-25 16:38:00,
2013-04-25 10:43:00,54.9,-99.9,25.07,NNW,345,6.0,9.6,-999,0.00,,,-99.99,FreeWX 2.04,2013-04-25 16:43:00,
2013-04-25 10:48:00,54.7,-99.9,25.07,NW,324,6.0,8.7,-999,0.00,,,-99.99,FreeWX 2.04,2013-04-25 16:48:00,
2013-04-25 10:53:00,55.8,-99.9,25.07,NNW,331,6.0,10.1,-999,0.00,,,-99.99,FreeWX 2.04,2013-04-25 16:53:00,
2013-04-25 10:58:00,56.3,-99.9,25.07,NNW,327,5.0,8.3,-999,0.00,,,-99.99,FreeWX 2.04,2013-04-25 16:58:00,
2013-04-25 11:03:00,56.3,-99.9,25.07,NW,314,4.0,9.2,-999,0.00,,,-99.99,FreeWX 2.04,2013-04-25 17:03:00,
2013-04-25 11:08:00,56.8,-99.9,25.07,NW,317,6.0,11.6,-999,0.00,,,-99.99,FreeWX 2.04,2013-04-25 17:08:00,
2013-04-25 11:13:00,57.0,-99.9,25.07,NNW,328,8.0,14.3,-999,0.00,,,-99.99,FreeWX 2.04,2013-04-25 17:13:00,
2013-04-25 11:18:00,57.0,-99.9,25.07,NNW,338,8.0,14.3,-999,0.00,,,-99.99,FreeWX 2.04,2013-04-25 17:18:00,
2013-04-25 11:23:00,57.6,-99.9,25.04,NNW,343,8.0,11.6,-999,0.00,,,-99.99,FreeWX 2.04,2013-04-25 17:23:00,
2013-04-25 11:28:00,58.8,-99.9,25.04,NNW,344,7.0,11.0,-999,0.00,,,-99.99,FreeWX 2.04,2013-04-25 17:28:00,
2013-04-25 11:33:00,59.2,-99.9,25.04,North,352,8.0,13.0,-999,0.00,,,-99.99,FreeWX 2.04,2013-04-25 17:33:00,
2013-04-25 11:38:00,58.6,-99.9,25.04,North,351,8.0,11.2,-999,0.00,,,-99.99,FreeWX 2.04,2013-04-25 17:38:00,
2013-04-25 11:43:00,59.0,-99.9,25.04,NNW,338,7.0,10.1,-999,0.00,,,-99.99,FreeWX 2.04,2013-04-25 17:43:00,
2013-04-25 11:48:00,59.5,-99.9,25.04,NNW,340,7.0,12.1,-999,0.00,,,-99.99,FreeWX 2.04,2013-04-25 17:48:00,
2013-04-25 11:54:00,59.2,-99.9,25.04,NNW,346,7.0,13.0,-999,0.00,,,-99.99,FreeWX 2.04,2013-04-25 17:54:00,
2013-04-25 11:59:00,59.5,-99.9,25.04,NNW,341,7.0,12.1,-999,0.00,,,-99.99,FreeWX 2.04,2013-04-25 17:59:00,
2013-04-25 12:04:00,58.8,-99.9,25.04,NNW,338,6.0,9.6,-999,0.00,,,-99.99,FreeWX 2.04,2013-04-25 18:04:00,
2013-04-25 12:09:00,60.1,-99.9,25.04,NNW,340,6.0,9.2,-999,0.00,,,-99.99,FreeWX 2.04,2013-04-25 18:09:00,
2013-04-25 12:14:00,60.4,-99.9,25.04,North,350,6.0,10.1,-999,0.00,,,-99.99,FreeWX 2.04,2013-04-25 18:14:00,
2013-04-25 12:19:00,59.9,-99.9,25.04,NNW,336,5.0,9.6,-999,0.00,,,-99.99,FreeWX 2.04,2013-04-25 18:19:00,
2013-04-25 12:24:00,60.8,-99.9,25.01,NW,325,6.0,10.1,-999,0.00,,,-99.99,FreeWX 2.04,2013-04-25 18:24:00,
2013-04-25 12:29:00,62.2,-99.9,25.01,NNW,333,6.0,9.6,-999,0.00,,,-99.99,FreeWX 2.04,2013-04-25 18:29:00,
2013-04-25 12:34:00,61.9,-99.9,25.01,NW,323,5.0,8.7,-999,0.00,,,-99.99,FreeWX 2.04,2013-04-25 18:34:00,
2013-04-25 12:39:00,63.7,-99.9,25.01,NNW,348,5.0,8.3,-999,0.00,,,-99.99,FreeWX 2.04,2013-04-25 18:39:00,
2013-04-25 12:44:00,61.9,-99.9,25.01,NNW,344,5.0,8.3,-999,0.00,,,-99.99,FreeWX 2.04,2013-04-25 18:44:00,
2013-04-25 12:49:00,62.2,-99.9,25.01,NW,324,6.0,9.6,-999,0.00,,,-99.99,FreeWX 2.04,2013-04-25 18:49:00,
2013-04-25 12:54:00,62.4,-99.9,25.01,NW,326,5.0,7.8,-999,0.00,,,-99.99,FreeWX 2.04,2013-04-25 18:54:00,
2013-04-25 12:59:00,63.0,-99.9,25.01,WNW,287,5.0,10.5,-999,0.00,,,-99.99,FreeWX 2.04,2013-04-25 18:59:00,
2013-04-25 13:04:00,64.4,-99.9,25.01,West,272,5.0,8.7,-999,0.00,,,-99.99,FreeWX 2.04,2013-04-25 19:04:00,
2013-04-25 13:09:00,63.1,-99.9,25.01,NW,311,4.0,7.8,-999,0.00,,,-99.99,FreeWX 2.04,2013-04-25 19:09:00,
2013-04-25 13:14:00,63.0,-99.9,25.01,NNW,334,5.0,7.8,-999,0.00,,,-99.99,FreeWX 2.04,2013-04-25 19:14:00,
2013-04-25 13:19:00,63.7,-99.9,25.01,NW,326,4.0,6.3,-999,0.00,,,-99.99,FreeWX 2.04,2013-04-25 19:19:00,
2013-04-25 13:24:00,63.9,-99.9,24.98,NW,317,3.0,7.8,-999,0.00,,,-99.99,FreeWX 2.04,2013-04-25 19:24:00,
2013-04-25 13:29:00,64.2,-99.9,24.98,NW,315,4.0,7.8,-999,0.00,,,-99.99,FreeWX 2.04,2013-04-25 19:29:00,
2013-04-25 13:34:00,64.2,-99.9,24.98,NNW,331,5.0,10.5,-999,0.00,,,-99.99,FreeWX 2.04,2013-04-25 19:34:00,
2013-04-25 13:39:00,64.6,-99.9,24.98,NNW,330,5.0,9.6,-999,0.00,,,-99.99,FreeWX 2.04,2013-04-25 19:39:00,
2013-04-25 13:44:00,64.9,-99.9,24.98,SSW,204,5.0,10.5,-999,0.00,,,-99.99,FreeWX 2.04,2013-04-25 19:44:00,
2013-04-25 13:49:00,64.4,-99.9,24.98,SSW,200,6.0,9.6,-999,0.00,,,-99.99,FreeWX 2.04,2013-04-25 19:49:00,
2013-04-25 13:54:00,64.6,-99.9,24.98,West,259,5.0,7.4,-999,0.00,,,-99.99,FreeWX 2.04,2013-04-25 19:54:00,
2013-04-25 13:59:00,65.3,-99.9,24.98,NNW,342,4.0,6.3,-999,0.00,,,-99.99,FreeWX 2.04,2013-04-25 19:59:00,
2013-04-25 14:04:00,66.7,-99.9,24.98,NNE,18,4.0,12.1,-999,0.00,,,-99.99,FreeWX 2.04,2013-04-25 20:04:00,
2013-04-25 14:09:00,65.7,-99.9,24.98,WNW,283,6.0,10.5,-999,0.00,,,-99.99,FreeWX 2.04,2013-04-25 20:09:00,
2013-04-25 14:14:00,66.0,-99.9,24.98,WSW,242,8.0,14.3,-999,0.00,,,-99.99,FreeWX 2.04,2013-04-25 20:14:00,
2013-04-25 14:19:00,65.1,-99.9,24.98,SW,220,8.0,12.1,-999,0.00,,,-99.99,FreeWX 2.04,2013-04-25 20:19:00,
2013-04-25 14:24:00,65.1,-99.9,24.98,SSW,206,7.0,14.3,-999,0.00,,,-99.99,FreeWX 2.04,2013-04-25 20:24:00,
2013-04-25 14:29:00,65.5,-99.9,24.98,SSW,213,7.0,13.4,-999,0.00,,,-99.99,FreeWX 2.04,2013-04-25 20:29:00,
2013-04-25 14:34:00,66.0,-99.9,24.98,WSW,240,7.0,12.1,-999,0.00,,,-99.99,FreeWX 2.04,2013-04-25 20:34:00,
2013-04-25 14:39:00,66.6,-99.9,24.95,SW,215,8.0,12.5,-999,0.00,,,-99.99,FreeWX 2.04,2013-04-25 20:39:00,
2013-04-25 14:44:00,66.7,-99.9,24.95,South,182,8.0,12.5,-999,0.00,,,-99.99,FreeWX 2.04,2013-04-25 20:44:00,
2013-04-25 14:49:00,66.9,-99.9,24.95,South,176,6.0,9.2,-999,0.00,,,-99.99,FreeWX 2.04,2013-04-25 20:49:00,
2013-04-25 14:54:00,67.5,-99.9,24.95,South,173,4.0,10.1,-999,0.00,,,-99.99,FreeWX 2.04,2013-04-25 20:54:00,
2013-04-25 14:59:00,66.7,-99.9,24.95,South,182,6.0,14.8,-999,0.00,,,-99.99,FreeWX 2.04,2013-04-25 20:59:00,
2013-04-25 15:04:00,67.8,-99.9,24.95,SSW,193,8.0,11.2,-999,0.00,,,-99.99,FreeWX 2.04,2013-04-25 21:04:00,
2013-04-25 15:09:00,66.7,-99.9,24.95,SSW,198,10.0,19.5,-999,0.00,,,-99.99,FreeWX 2.04,2013-04-25 21:09:00,
2013-04-25 15:14:00,67.1,-99.9,24.95,SW,214,10.0,16.3,-999,0.00,,,-99.99,FreeWX 2.04,2013-04-25 21:14:00,
2013-04-25 15:19:00,67.8,-99.9,24.95,SW,229,9.0,15.4,-999,0.00,,,-99.99,FreeWX 2.04,2013-04-25 21:19:00,
2013-04-25 15:24:00,69.1,-99.9,24.95,SSW,198,10.0,17.7,-999,0.00,,,-99.99,FreeWX 2.04,2013-04-25 21:24:00,
2013-04-25 15:29:00,68.0,-99.9,24.95,South,179,11.0,15.9,-999,0.00,,,-99.99,FreeWX 2.04,2013-04-25 21:29:00,
2013-04-25 15:34:00,68.7,-99.9,24.95,SSW,193,11.0,15.4,-999,0.00,,,-99.99,FreeWX 2.04,2013-04-25 21:34:00,
2013-04-25 15:39:00,66.7,-99.9,24.95,SSW,196,11.0,17.7,-999,0.00,,,-99.99,FreeWX 2.04,2013-04-25 21:39:00,
2013-04-25 15:44:00,67.8,-99.9,24.95,SSW,196,12.0,17.7,-999,0.00,,,-99.99,FreeWX 2.04,2013-04-25 21:44:00,
2013-04-25 15:49:00,66.9,-99.9,24.95,SSW,194,11.0,16.8,-999,0.00,,,-99.99,FreeWX 2.04,2013-04-25 21:49:00,
2013-04-25 15:54:00,67.6,-99.9,24.95,South,177,10.0,15.2,-999,0.00,,,-99.99,FreeWX 2.04,2013-04-25 21:54:00,
2013-04-25 15:59:00,68.2,-99.9,24.95,South,177,11.0,16.3,-999,0.00,,,-99.99,FreeWX 2.04,2013-04-25 21:59:00,
2013-04-25 16:04:00,68.4,-99.9,24.95,SSW,195,10.0,14.8,-999,0.00,,,-99.99,FreeWX 2.04,2013-04-25 22:04:00,
2013-04-25 16:09:00,68.4,-99.9,24.92,SSW,204,11.0,19.5,-999,0.00,,,-99.99,FreeWX 2.04,2013-04-25 22:09:00,
2013-04-25 16:14:00,68.7,-99.9,24.92,SSW,207,11.0,19.5,-999,0.00,,,-99.99,FreeWX 2.04,2013-04-25 22:14:00,
2013-04-25 16:19:00,67.8,-99.9,24.92,SW,227,11.0,20.1,-999,0.00,,,-99.99,FreeWX 2.04,2013-04-25 22:19:00,
2013-04-25 16:24:00,68.7,-99.9,24.92,WSW,241,12.0,20.6,-999,0.00,,,-99.99,FreeWX 2.04,2013-04-25 22:24:00,
2013-04-25 16:29:00,68.7,-99.9,24.92,SW,224,12.0,19.5,-999,0.00,,,-99.99,FreeWX 2.04,2013-04-25 22:29:00,
2013-04-25 16:34:00,69.1,-99.9,24.92,SSW,205,10.0,17.7,-999,0.00,,,-99.99,FreeWX 2.04,2013-04-25 22:34:00,
2013-04-25 16:39:00,69.4,-99.9,24.92,SSW,198,12.0,19.9,-999,0.00,,,-99.99,FreeWX 2.04,2013-04-25 22:39:00,
2013-04-25 16:44:00,69.8,-99.9,24.92,SSW,195,14.0,19.9,-999,0.00,,,-99.99,FreeWX 2.04,2013-04-25 22:44:00,
2013-04-25 16:49:00,68.7,-99.9,24.92,SSW,204,16.0,25.3,-999,0.00,,,-99.99,FreeWX 2.04,2013-04-25 22:49:00,
2013-04-25 16:54:00,69.4,-99.9,24.92,SW,214,17.0,22.4,-999,0.00,,,-99.99,FreeWX 2.04,2013-04-25 22:54:00,
2013-04-25 16:59:00,68.7,-99.9,24.92,SSW,211,17.0,23.3,-999,0.00,,,-99.99,FreeWX 2.04,2013-04-25 22:59:00,
2013-04-25 17:04:00,68.5,-99.9,24.92,SSW,211,16.0,22.8,-999,0.00,,,-99.99,FreeWX 2.04,2013-04-25 23:04:00,
2013-04-25 17:09:00,68.4,-99.9,24.92,SSW,205,16.0,22.8,-999,0.00,,,-99.99,FreeWX 2.04,2013-04-25 23:09:00,
2013-04-25 17:14:00,69.1,-99.9,24.92,SSW,200,16.0,22.4,-999,0.00,,,-99.99,FreeWX 2.04,2013-04-25 23:14:00,
2013-04-25 17:19:00,69.8,-99.9,24.92,SSW,196,16.0,25.3,-999,0.00,,,-99.99,FreeWX 2.04,2013-04-25 23:19:00,
2013-04-25 17:24:00,69.4,-99.9,24.92,South,187,14.0,19.9,-999,0.00,,,-99.99,FreeWX 2.04,2013-04-25 23:24:00,
2013-04-25 17:29:00,69.1,-99.9,24.92,South,185,12.0,19.5,-999,0.00,,,-99.99,FreeWX 2.04,2013-04-25 23:29:00,
2013-04-25 17:34:00,68.9,-99.9,24.92,South,181,12.0,20.6,-999,0.00,,,-99.99,FreeWX 2.04,2013-04-25 23:34:00,
2013-04-25 17:39:00,69.3,-99.9,24.92,SSE,168,12.0,28.4,-999,0.00,,,-99.99,FreeWX 2.04,2013-04-25 23:39:00,
2013-04-25 17:44:00,69.6,-99.9,24.92,SSE,166,12.0,19.5,-999,0.00,,,-99.99,FreeWX 2.04,2013-04-25 23:44:00,
2013-04-25 17:49:00,69.3,-99.9,24.92,South,174,11.0,19.0,-999,0.00,,,-99.99,FreeWX 2.04,2013-04-25 23:49:00,
2013-04-25 17:54:00,69.4,-99.9,24.92,South,183,11.0,16.3,-999,0.00,,,-99.99,FreeWX 2.04,2013-04-25 23:54:00,
2013-04-25 17:59:00,69.3,-99.9,24.92,South,180,11.0,20.6,-999,0.00,,,-99.99,FreeWX 2.04,2013-04-25 23:59:00,
2013-04-25 18:04:00,69.3,-99.9,24.92,South,174,13.0,19.9,-999,0.00,,,-99.99,FreeWX 2.04,2013-04-26 00:04:00,
2013-04-25 18:09:00,69.1,-99.9,24.92,South,172,13.0,30.0,-999,0.00,,,-99.99,FreeWX 2.04,2013-04-26 00:09:00,
2013-04-25 18:14:00,69.3,-99.9,24.92,SSE,154,11.0,15.9,-999,0.00,,,-99.99,FreeWX 2.04,2013-04-26 00:14:00,
2013-04-25 18:19:00,68.4,-99.9,24.92,SE,142,10.0,20.6,-999,0.00,,,-99.99,FreeWX 2.04,2013-04-26 00:19:00,
2013-04-25 18:24:00,68.4,-99.9,24.92,SE,141,10.0,15.4,-999,0.00,,,-99.99,FreeWX 2.04,2013-04-26 00:24:00,
2013-04-25 18:29:00,68.4,-99.9,24.92,SSE,157,10.0,21.5,-999,0.00,,,-99.99,FreeWX 2.04,2013-04-26 00:29:00,
2013-04-25 18:34:00,68.5,-99.9,24.92,South,173,10.0,17.7,-999,0.00,,,-99.99,FreeWX 2.04,2013-04-26 00:34:00,
2013-04-25 18:39:00,68.4,-99.9,24.92,SSE,168,10.0,18.6,-999,0.00,,,-99.99,FreeWX 2.04,2013-04-26 00:39:00,
2013-04-25 18:44:00,68.2,-99.9,24.92,SSE,163,10.0,13.9,-999,0.00,,,-99.99,FreeWX 2.04,2013-04-26 00:44:00,
2013-04-25 18:49:00,68.0,-99.9,24.92,South,172,10.0,18.6,-999,0.00,,,-99.99,FreeWX 2.04,2013-04-26 00:49:00,
2013-04-25 18:54:00,68.2,-99.9,24.92,SSE,167,9.0,12.1,-999,0.00,,,-99.99,FreeWX 2.04,2013-04-26 00:54:00,
2013-04-25 19:05:00,67.8,-99.9,24.92,ESE,118,10.0,16.3,-999,0.00,,,-99.99,FreeWX 2.04,2013-04-26 01:05:00,
2013-04-25 19:10:00,67.6,-99.9,24.92,ESE,105,10.0,19.5,-999,0.00,,,-99.99,FreeWX 2.04,2013-04-26 01:10:00,
2013-04-25 19:15:00,67.3,-99.9,24.92,East,97,12.0,19.5,-999,0.00,,,-99.99,FreeWX 2.04,2013-04-26 01:15:00,
2013-04-25 19:20:00,67.1,-99.9,24.92,East,95,12.0,18.6,-999,0.00,,,-99.99,FreeWX 2.04,2013-04-26 01:20:00,
2013-04-25 19:25:00,66.9,-99.9,24.92,East,96,12.0,17.2,-999,0.00,,,-99.99,FreeWX 2.04,2013-04-26 01:25:00,
2013-04-25 19:30:00,66.4,-99.9,24.92,East,95,12.0,19.0,-999,0.00,,,-99.99,FreeWX 2.04,2013-04-26 01:30:00,
2013-04-25 19:35:00,66.4,-99.9,24.92,East,99,12.0,19.0,-999,0.00,,,-99.99,FreeWX 2.04,2013-04-26 01:35:00,
2013-04-25 19:40:00,66.2,-99.9,24.92,ESE,103,11.0,16.8,-999,0.00,,,-99.99,FreeWX 2.04,2013-04-26 01:40:00,
2013-04-25 19:45:00,65.8,-99.9,24.92,ESE,102,10.0,15.4,-999,0.00,,,-99.99,FreeWX 2.04,2013-04-26 01:45:00,
2013-04-25 19:50:00,65.8,-99.9,24.92,ESE,105,10.0,14.8,-999,0.00,,,-99.99,FreeWX 2.04,2013-04-26 01:50:00,
2013-04-25 19:55:00,65.8,-99.9,24.92,ESE,105,10.0,16.3,-999,0.00,,,-99.99,FreeWX 2.04,2013-04-26 01:55:00,
2013-04-25 20:00:00,65.5,-99.9,24.92,ESE,103,10.0,14.3,-999,0.00,,,-99.99,FreeWX 2.04,2013-04-26 02:00:00,
2013-04-25 20:05:00,65.3,-99.9,24.92,ESE,104,8.0,11.6,-999,0.00,,,-99.99,FreeWX 2.04,2013-04-26 02:05:00,
2013-04-25 20:10:00,64.9,-99.9,24.92,ESE,103,7.0,12.5,-999,0.00,,,-99.99,FreeWX 2.04,2013-04-26 02:10:00,
2013-04-25 20:15:00,64.8,-99.9,24.92,ESE,102,7.0,11.2,-999,0.00,,,-99.99,FreeWX 2.04,2013-04-26 02:15:00,
2013-04-25 20:20:00,64.8,-99.9,24.92,East,101,8.0,13.9,-999,0.00,,,-99.99,FreeWX 2.04,2013-04-26 02:20:00,
2013-04-25 20:25:00,65.1,-99.9,24.92,East,100,9.0,17.7,-999,0.00,,,-99.99,FreeWX 2.04,2013-04-26 02:25:00,
2013-04-25 20:30:00,64.6,-99.9,24.92,ESE,102,10.0,14.3,-999,0.00,,,-99.99,FreeWX 2.04,2013-04-26 02:30:00,
2013-04-25 20:35:00,64.6,-99.9,24.92,ESE,104,8.0,14.8,-999,0.00,,,-99.99,FreeWX 2.04,2013-04-26 02:35:00,
2013-04-25 20:40:00,64.2,-99.9,24.95,ESE,102,8.0,12.5,-999,0.00,,,-99.99,FreeWX 2.04,2013-04-26 02:40:00,
2013-04-25 20:45:00,63.9,-99.9,24.95,ESE,102,8.0,13.0,-999,0.00,,,-99.99,FreeWX 2.04,2013-04-26 02:45:00,
2013-04-25 20:50:00,63.9,-99.9,24.95,ESE,105,8.0,16.3,-999,0.00,,,-99.99,FreeWX 2.04,2013-04-26 02:50:00,
2013-04-25 20:55:00,63.5,-99.9,24.95,ESE,105,8.0,11.0,-999,0.00,,,-99.99,FreeWX 2.04,2013-04-26 02:55:00,
2013-04-25 21:00:00,63.5,-99.9,24.95,ESE,104,8.0,13.9,-999,0.00,,,-99.99,FreeWX 2.04,2013-04-26 03:00:00,
2013-04-25 21:05:00,63.5,-99.9,24.95,ESE,107,8.0,13.0,-999,0.00,,,-99.99,FreeWX 2.04,2013-04-26 03:05:00,
2013-04-25 21:10:00,63.7,-99.9,24.95,ESE,113,9.0,15.9,-999,0.00,,,-99.99,FreeWX 2.04,2013-04-26 03:10:00,
2013-04-25 21:15:00,63.3,-99.9,24.95,ESE,113,9.0,12.1,-999,0.00,,,-99.99,FreeWX 2.04,2013-04-26 03:15:00,
2013-04-25 21:20:00,63.5,-99.9,24.95,ESE,115,8.0,14.3,-999,0.00,,,-99.99,FreeWX 2.04,2013-04-26 03:20:00,
2013-04-25 21:25:00,63.1,-99.9,24.95,ESE,118,8.0,13.0,-999,0.00,,,-99.99,FreeWX 2.04,2013-04-26 03:25:00,
2013-04-25 21:30:00,62.6,-99.9,24.95,ESE,122,8.0,13.0,-999,0.00,,,-99.99,FreeWX 2.04,2013-04-26 03:30:00,
2013-04-25 21:35:00,61.7,-99.9,24.95,SSE,157,8.0,10.5,-999,0.00,,,-99.99,FreeWX 2.04,2013-04-26 03:35:00,
2013-04-25 21:40:00,61.3,-99.9,24.98,SSW,206,9.0,15.4,-999,0.00,,,-99.99,FreeWX 2.04,2013-04-26 03:40:00,
2013-04-25 21:45:00,61.2,-99.9,24.98,SW,224,10.0,15.4,-999,0.00,,,-99.99,FreeWX 2.04,2013-04-26 03:45:00,
2013-04-25 21:51:00,61.9,-99.9,24.98,SW,221,10.0,15.2,-999,0.00,,,-99.99,FreeWX 2.04,2013-04-26 03:51:00,
2013-04-25 21:56:00,62.2,-99.9,24.98,SSW,199,10.0,14.8,-999,0.00,,,-99.99,FreeWX 2.04,2013-04-26 03:56:00,
2013-04-25 22:01:00,61.9,-99.9,24.98,South,174,10.0,16.3,-999,0.00,,,-99.99,FreeWX 2.04,2013-04-26 04:01:00,
2013-04-25 22:06:00,61.7,-99.9,24.98,SSE,152,8.0,11.2,-999,0.00,,,-99.99,FreeWX 2.04,2013-04-26 04:06:00,
2013-04-25 22:11:00,60.6,-99.9,24.98,ESE,121,6.0,7.8,-999,0.00,,,-99.99,FreeWX 2.04,2013-04-26 04:11:00,
2013-04-25 22:16:00,60.1,-99.9,24.98,ESE,120,5.0,10.1,-999,0.00,,,-99.99,FreeWX 2.04,2013-04-26 04:16:00,
2013-04-25 22:21:00,60.1,-99.9,24.98,ESE,120,6.0,12.5,-999,0.00,,,-99.99,FreeWX 2.04,2013-04-26 04:21:00,
2013-04-25 22:26:00,59.9,-99.9,24.98,ESE,109,7.0,12.1,-999,0.00,,,-99.99,FreeWX 2.04,2013-04-26 04:26:00,
2013-04-25 22:36:00,59.7,-99.9,24.98,ESE,108,7.0,11.6,-999,0.00,,,-99.99,FreeWX 2.04,2013-04-26 04:36:00,
2013-04-25 22:41:00,59.4,-99.9,24.98,ESE,114,6.0,11.0,-999,0.00,,,-99.99,FreeWX 2.04,2013-04-26 04:41:00,
2013-04-25 22:46:00,59.2,-99.9,24.98,ESE,109,6.0,10.5,-999,0.00,,,-99.99,FreeWX 2.04,2013-04-26 04:46:00,
2013-04-25 22:51:00,59.4,-99.9,24.98,ESE,106,7.0,12.5,-999,0.00,,,-99.99,FreeWX 2.04,2013-04-26 04:51:00,
2013-04-25 22:56:00,59.7,-99.9,24.98,ESE,107,7.0,11.6,-999,0.00,,,-99.99,FreeWX 2.04,2013-04-26 04:56:00,
2013-04-25 23:01:00,59.4,-99.9,24.98,ESE,108,7.0,13.4,-999,0.00,,,-99.99,FreeWX 2.04,2013-04-26 05:01:00,
2013-04-25 23:06:00,59.2,-99.9,24.98,ESE,107,8.0,13.0,-999,0.00,,,-99.99,FreeWX 2.04,2013-04-26 05:06:00,
2013-04-25 23:11:00,59.2,-99.9,25.01,ESE,107,8.0,12.5,-999,0.00,,,-99.99,FreeWX 2.04,2013-04-26 05:11:00,
2013-04-25 23:16:00,59.0,-99.9,25.01,ESE,106,9.0,13.9,-999,0.00,,,-99.99,FreeWX 2.04,2013-04-26 05:16:00,
2013-04-25 23:21:00,59.0,-99.9,25.01,ESE,107,8.0,12.1,-999,0.00,,,-99.99,FreeWX 2.04,2013-04-26 05:21:00,
2013-04-25 23:26:00,58.8,-99.9,25.01,ESE,107,9.0,13.0,-999,0.00,,,-99.99,FreeWX 2.04,2013-04-26 05:26:00,
2013-04-25 23:31:00,58.8,-99.9,25.01,ESE,108,9.0,13.9,-999,0.00,,,-99.99,FreeWX 2.04,2013-04-26 05:31:00,
2013-04-25 23:36:00,58.8,-99.9,25.01,ESE,111,9.0,13.9,-999,0.00,,,-99.99,FreeWX 2.04,2013-04-26 05:36:00,
2013-04-25 23:41:00,58.8,-99.9,25.01,ESE,110,8.0,11.6,-999,0.00,,,-99.99,FreeWX 2.04,2013-04-26 05:41:00,
2013-04-25 23:46:00,56.5,-99.9,25.01,SE,136,7.0,11.6,-999,0.00,,,-99.99,FreeWX 2.04,2013-04-26 05:46:00,
2013-04-25 23:51:00,56.1,-99.9,25.01,SSW,210,5.0,7.8,-999,0.00,,,-99.99,FreeWX 2.04,2013-04-26 05:51:00,
2013-04-25 23:56:00,55.0,-99.9,25.01,SW,219,5.0,8.7,-999,0.00,,,-99.99,FreeWX 2.04,2013-04-26 05:56:00,